createdAt,value
2018-11-26T00:00:43.171Z,4.69
2018-11-26T00:01:43.146Z,4.69
2018-11-26T00:02:43.138Z,4.62
2018-11-26T00:03:43.133Z,4.62
2018-11-26T00:04:43.112Z,4.62
2018-11-26T00:05:43.111Z,4.64
2018-11-26T00:06:43.093Z,4.62
2018-11-26T00:07:43.081Z,4.55
2018-11-26T00:11:10.674Z,4.64
2018-11-26T00:12:05.446Z,4.72
2018-11-26T00:13:05.455Z,4.76
2018-11-26T00:15:18.453Z,4.76
2018-11-26T00:18:15.729Z,4.69
2018-11-26T00:20:53.281Z,4.64
2018-11-26T00:21:53.209Z,4.76
2018-11-26T00:25:14.843Z,4.67
2018-11-26T00:26:14.818Z,4.61
2018-11-26T00:27:14.559Z,4.65
2018-11-26T00:30:14.126Z,4.61
2018-11-26T00:31:14.132Z,4.58
2018-11-26T00:34:24.509Z,4.54
2018-11-26T00:35:24.509Z,4.50
2018-11-26T00:38:23.981Z,4.47
2018-11-26T00:39:23.940Z,4.52
2018-11-26T00:42:34.508Z,4.37
2018-11-26T00:43:34.383Z,4.42
2018-11-26T00:46:44.817Z,4.29
2018-11-26T00:47:44.780Z,4.44
2018-11-26T00:50:44.817Z,4.28
2018-11-26T00:51:44.443Z,4.36
2018-11-26T00:54:54.658Z,4.32
2018-11-26T00:55:54.667Z,4.34
2018-11-26T00:56:54.631Z,4.33
2018-11-26T00:59:54.102Z,4.36
2018-11-26T01:00:54.094Z,4.32
2018-11-26T01:04:04.669Z,4.24
2018-11-26T01:06:25.464Z,4.15
2018-11-26T01:08:44.743Z,4.15
2018-11-26T01:11:44.360Z,4.12
2018-11-26T01:12:44.230Z,4.03
2018-11-26T01:13:55.183Z,4.15
2018-11-26T01:16:54.629Z,4.14
2018-11-26T01:19:54.077Z,3.98
2018-11-26T01:22:24.745Z,3.94
2018-11-26T01:23:25.336Z,3.92
2018-11-26T01:26:24.229Z,3.88
2018-11-26T01:27:24.174Z,3.90
2018-11-26T01:28:24.159Z,3.89
2018-11-26T01:29:24.127Z,3.90
2018-11-26T01:31:53.269Z,3.90
2018-11-26T01:35:03.957Z,3.80
2018-11-26T01:36:03.670Z,3.83
2018-11-26T01:37:03.663Z,3.83
2018-11-26T01:40:14.121Z,3.80
2018-11-26T01:41:14.109Z,3.72
2018-11-26T01:42:14.055Z,3.79
2018-11-26T01:43:14.044Z,3.68
2018-11-26T01:44:14.029Z,3.75
2018-11-26T01:47:24.481Z,3.68
2018-11-26T01:48:24.488Z,3.68
2018-11-26T01:49:24.428Z,3.65
2018-11-26T01:50:24.451Z,3.79
2018-11-26T01:53:34.858Z,3.80
2018-11-26T01:54:34.926Z,3.80
2018-11-26T01:57:34.361Z,3.78
2018-11-26T02:00:44.905Z,3.90
2018-11-26T02:03:44.271Z,3.89
2018-11-26T02:06:23.729Z,3.86
2018-11-26T02:09:13.276Z,3.80
2018-11-26T02:10:25.293Z,3.82
2018-11-26T02:11:26.104Z,3.67
2018-11-26T02:12:26.222Z,3.68
2018-11-26T02:13:13.196Z,3.71
2018-11-26T02:14:27.891Z,3.67
2018-11-26T02:15:26.092Z,3.75
2018-11-26T02:16:26.087Z,3.70
2018-11-26T02:17:26.194Z,3.64
2018-11-26T02:18:25.402Z,3.76
2018-11-26T02:19:25.176Z,3.68
2018-11-26T02:20:25.135Z,3.61
2018-11-26T02:21:26.212Z,3.72
2018-11-26T02:22:26.139Z,3.61
2018-11-26T02:23:24.689Z,3.54
2018-11-26T02:24:26.144Z,3.52
2018-11-26T02:25:26.080Z,3.57
2018-11-26T02:26:25.124Z,3.53
2018-11-26T02:27:13.056Z,3.47
2018-11-26T02:28:24.666Z,3.49
2018-11-26T02:29:22.677Z,3.49
2018-11-26T02:30:26.394Z,3.44
2018-11-26T02:31:25.025Z,3.53
2018-11-26T02:32:26.291Z,3.52
2018-11-26T02:33:25.016Z,3.53
2018-11-26T02:34:25.992Z,3.62
2018-11-26T02:35:26.044Z,3.65
2018-11-26T02:36:24.981Z,3.53
2018-11-26T02:37:25.991Z,3.57
2018-11-26T02:38:25.998Z,3.54
2018-11-26T02:39:26.061Z,3.50
2018-11-26T02:40:24.773Z,3.62
2018-11-26T02:41:24.906Z,3.58
2018-11-26T02:42:26.480Z,3.61
2018-11-26T02:43:25.895Z,3.58
2018-11-26T02:44:25.896Z,3.60
2018-11-26T02:45:29.403Z,3.58
2018-11-26T02:46:23.897Z,3.57
2018-11-26T02:47:27.347Z,3.60
2018-11-26T02:48:25.164Z,3.52
2018-11-26T02:49:25.865Z,3.62
2018-11-26T02:50:26.102Z,3.57
2018-11-26T02:51:29.069Z,3.54
2018-11-26T02:52:25.814Z,3.57
2018-11-26T02:53:24.807Z,3.49
2018-11-26T02:54:26.333Z,3.44
2018-11-26T02:55:26.113Z,3.47
2018-11-26T02:56:25.722Z,3.36
2018-11-26T02:57:24.741Z,3.31
2018-11-26T02:58:20.713Z,3.25
2018-11-26T02:59:24.703Z,3.16
2018-11-26T03:00:28.915Z,3.16
2018-11-26T03:01:25.339Z,3.06
2018-11-26T03:02:25.719Z,2.95
2018-11-26T03:03:25.680Z,3.05
2018-11-26T03:04:26.293Z,2.89
2018-11-26T03:05:12.633Z,2.88
2018-11-26T03:06:26.159Z,2.82
2018-11-26T03:07:26.649Z,2.84
2018-11-26T03:08:26.944Z,2.91
2018-11-26T03:09:26.582Z,3.02
2018-11-26T03:10:22.321Z,2.97
2018-11-26T03:11:27.252Z,2.94
2018-11-26T03:12:12.551Z,3.02
2018-11-26T03:13:27.120Z,2.98
2018-11-26T03:14:19.542Z,3.03
2018-11-26T03:15:19.602Z,2.95
2018-11-26T03:16:19.884Z,3.07
2018-11-26T03:17:19.505Z,3.09
2018-11-26T03:18:19.550Z,3.00
2018-11-26T03:19:19.521Z,2.94
2018-11-26T03:20:19.488Z,3.00
2018-11-26T03:21:20.065Z,2.97
2018-11-26T03:22:19.459Z,3.05
2018-11-26T03:23:19.465Z,3.06
2018-11-26T03:24:19.515Z,2.97
2018-11-26T03:25:25.734Z,3.06
2018-11-26T03:26:19.459Z,3.05
2018-11-26T03:27:19.424Z,3.00
2018-11-26T03:28:19.386Z,3.06
2018-11-26T03:29:24.944Z,3.00
2018-11-26T03:30:19.370Z,3.05
2018-11-26T03:31:19.424Z,2.97
2018-11-26T03:32:19.340Z,2.98
2018-11-26T03:33:19.338Z,2.94
2018-11-26T03:34:19.402Z,3.05
2018-11-26T03:35:19.299Z,2.98
2018-11-26T03:36:19.359Z,2.82
2018-11-26T03:37:12.284Z,2.87
2018-11-26T03:38:19.269Z,2.92
2018-11-26T03:39:20.194Z,2.91
2018-11-26T03:40:19.548Z,2.94
2018-11-26T03:41:19.759Z,2.88
2018-11-26T03:42:19.551Z,2.82
2018-11-26T03:43:19.236Z,2.89
2018-11-26T03:44:12.217Z,2.89
2018-11-26T03:45:19.198Z,2.92
2018-11-26T03:46:28.443Z,2.92
2018-11-26T03:47:19.242Z,2.87
2018-11-26T03:48:12.146Z,2.94
2018-11-26T03:49:12.118Z,2.91
2018-11-26T03:50:12.101Z,2.87
2018-11-26T03:51:12.120Z,2.87
2018-11-26T03:52:12.078Z,2.84
2018-11-26T03:53:12.062Z,2.76
2018-11-26T03:54:12.052Z,2.88
2018-11-26T03:55:12.045Z,2.87
2018-11-26T03:56:19.163Z,2.85
2018-11-26T03:57:12.044Z,2.85
2018-11-26T03:58:12.022Z,2.82
2018-11-26T03:59:19.020Z,2.88
2018-11-26T04:00:19.996Z,2.94
2018-11-26T04:01:11.985Z,2.89
2018-11-26T04:02:11.999Z,2.87
2018-11-26T04:03:18.977Z,2.97
2018-11-26T04:04:18.995Z,2.97
2018-11-26T04:05:11.950Z,2.97
2018-11-26T04:06:11.924Z,2.98
2018-11-26T04:07:19.149Z,2.97
2018-11-26T04:08:18.990Z,2.98
2018-11-26T04:09:11.896Z,2.98
2018-11-26T04:10:11.905Z,2.97
2018-11-26T04:11:11.866Z,3.06
2018-11-26T04:12:11.869Z,3.12
2018-11-26T04:13:11.843Z,3.07
2018-11-26T04:14:11.829Z,3.03
2018-11-26T04:15:11.828Z,2.97
2018-11-26T04:16:11.805Z,2.94
2018-11-26T04:17:18.858Z,3.06
2018-11-26T04:18:11.801Z,3.05
2018-11-26T04:19:11.775Z,3.18
2018-11-26T04:20:18.800Z,3.15
2018-11-26T04:21:18.800Z,3.15
2018-11-26T04:22:11.784Z,3.28
2018-11-26T04:23:11.745Z,3.28
2018-11-26T04:24:18.760Z,3.30
2018-11-26T04:25:19.739Z,3.27
2018-11-26T04:26:18.781Z,3.34
2018-11-26T04:27:11.719Z,3.30
2018-11-26T04:28:18.704Z,3.40
2018-11-26T04:29:11.681Z,3.40
2018-11-26T04:30:11.662Z,3.44
2018-11-26T04:31:11.647Z,3.43
2018-11-26T04:32:20.397Z,3.42
2018-11-26T04:33:11.648Z,3.42
2018-11-26T04:34:18.640Z,3.47
2018-11-26T04:35:11.616Z,3.49
2018-11-26T04:36:11.593Z,3.52
2018-11-26T04:37:11.589Z,3.52
2018-11-26T04:38:11.586Z,3.49
2018-11-26T04:39:11.554Z,3.58
2018-11-26T04:40:11.541Z,3.53
2018-11-26T04:41:11.524Z,3.61
2018-11-26T04:42:19.548Z,3.54
2018-11-26T04:43:18.537Z,3.57
2018-11-26T04:44:11.496Z,3.52
2018-11-26T04:45:18.514Z,3.61
2018-11-26T04:46:11.477Z,3.57
2018-11-26T04:47:20.564Z,3.53
2018-11-26T04:48:11.454Z,3.53
2018-11-26T04:49:18.483Z,3.57
2018-11-26T04:50:18.497Z,3.54
2018-11-26T04:51:11.422Z,3.58
2018-11-26T04:52:11.443Z,3.57
2018-11-26T04:53:11.395Z,3.61
2018-11-26T04:54:11.385Z,3.62
2018-11-26T04:55:18.416Z,3.60
2018-11-26T04:56:11.364Z,3.68
2018-11-26T04:57:18.747Z,3.68
2018-11-26T04:58:18.376Z,3.76
2018-11-26T04:59:11.331Z,3.79
2018-11-26T05:00:11.324Z,3.71
2018-11-26T05:01:18.333Z,3.72
2018-11-26T05:02:11.318Z,3.68
2018-11-26T05:03:11.314Z,3.72
2018-11-26T05:04:11.282Z,3.78
2018-11-26T05:05:11.273Z,3.75
2018-11-26T05:06:11.257Z,3.76
2018-11-26T05:07:18.322Z,3.71
2018-11-26T05:08:12.282Z,3.75
2018-11-26T05:09:11.213Z,3.79
2018-11-26T05:10:18.276Z,3.78
2018-11-26T05:11:18.222Z,3.75
2018-11-26T05:12:18.598Z,3.82
2018-11-26T05:13:11.184Z,3.80
2018-11-26T05:14:18.265Z,3.78
2018-11-26T05:15:18.206Z,3.78
2018-11-26T05:16:18.164Z,3.80
2018-11-26T05:17:12.007Z,3.82
2018-11-26T05:18:18.144Z,3.78
2018-11-26T05:19:18.172Z,3.75
2018-11-26T05:20:11.099Z,3.86
2018-11-26T05:21:11.099Z,3.78
2018-11-26T05:22:18.152Z,3.75
2018-11-26T05:23:18.181Z,3.76
2018-11-26T05:24:18.097Z,3.80
2018-11-26T05:25:11.059Z,3.79
2018-11-26T05:26:11.051Z,3.90
2018-11-26T05:27:11.056Z,3.88
2018-11-26T05:28:11.018Z,3.86
2018-11-26T05:29:10.987Z,3.79
2018-11-26T05:30:10.985Z,3.86
2018-11-26T05:31:10.964Z,3.83
2018-11-26T05:32:19.266Z,3.85
2018-11-26T05:33:10.960Z,3.86
2018-11-26T05:34:10.956Z,3.86
2018-11-26T05:35:18.006Z,3.86
2018-11-26T05:36:17.940Z,3.80
2018-11-26T05:37:10.931Z,3.90
2018-11-26T05:38:10.909Z,3.86
2018-11-26T05:39:17.921Z,3.89
2018-11-26T05:40:19.520Z,3.92
2018-11-26T05:41:10.896Z,3.89
2018-11-26T05:42:10.847Z,3.92
2018-11-26T05:43:17.911Z,3.90
2018-11-26T05:44:10.872Z,3.94
2018-11-26T05:45:10.828Z,3.90
2018-11-26T05:46:10.835Z,3.92
2018-11-26T05:47:17.848Z,3.90
2018-11-26T05:48:20.437Z,3.90
2018-11-26T05:49:18.854Z,3.97
2018-11-26T05:50:10.777Z,3.97
2018-11-26T05:51:10.771Z,3.89
2018-11-26T05:52:10.728Z,3.92
2018-11-26T05:53:10.732Z,3.94
2018-11-26T05:54:10.707Z,3.94
2018-11-26T05:55:10.703Z,3.90
2018-11-26T05:56:10.690Z,3.98
2018-11-26T05:57:10.676Z,3.96
2018-11-26T05:58:10.711Z,3.92
2018-11-26T05:59:10.657Z,3.97
2018-11-26T06:00:10.651Z,3.89
2018-11-26T06:01:11.465Z,3.90
2018-11-26T06:02:10.631Z,3.94
2018-11-26T06:03:10.608Z,3.90
2018-11-26T06:04:19.007Z,3.96
2018-11-26T06:05:10.588Z,3.92
2018-11-26T06:06:18.601Z,3.90
2018-11-26T06:07:10.564Z,3.94
2018-11-26T06:08:17.606Z,3.94
2018-11-26T06:09:19.158Z,3.90
2018-11-26T06:10:10.533Z,3.97
2018-11-26T06:11:10.517Z,3.89
2018-11-26T06:12:10.505Z,3.97
2018-11-26T06:13:10.500Z,3.89
2018-11-26T06:14:10.492Z,3.90
2018-11-26T06:15:10.472Z,3.90
2018-11-26T06:16:10.457Z,3.94
2018-11-26T06:17:10.446Z,3.96
2018-11-26T06:18:10.446Z,3.90
2018-11-26T06:19:10.435Z,3.94
2018-11-26T06:20:17.452Z,3.92
2018-11-26T06:21:10.401Z,3.89
2018-11-26T06:22:10.415Z,3.94
2018-11-26T06:23:10.378Z,3.96
2018-11-26T06:24:17.700Z,3.92
2018-11-26T06:25:10.360Z,3.94
2018-11-26T06:26:10.356Z,3.96
2018-11-26T06:27:10.340Z,3.98
2018-11-26T06:28:17.371Z,3.94
2018-11-26T06:29:10.324Z,3.98
2018-11-26T06:30:10.319Z,4.03
2018-11-26T06:31:10.286Z,4.00
2018-11-26T06:32:10.279Z,3.94
2018-11-26T06:33:10.268Z,3.88
2018-11-26T06:34:10.266Z,3.94
2018-11-26T06:35:17.283Z,3.97
2018-11-26T06:36:59.275Z,3.96
2018-11-26T06:38:06.086Z,3.94
2018-11-26T06:39:06.126Z,3.92
2018-11-26T06:40:07.043Z,3.94
2018-11-26T06:40:59.026Z,3.98
2018-11-26T06:41:59.902Z,3.97
2018-11-26T06:43:06.021Z,3.94
2018-11-26T06:43:58.997Z,3.98
2018-11-26T06:46:25.955Z,3.97
2018-11-26T06:47:25.636Z,3.98
2018-11-26T06:48:25.606Z,3.94
2018-11-26T06:49:25.602Z,3.92
2018-11-26T06:50:25.609Z,3.98
2018-11-26T06:53:14.142Z,3.92
2018-11-26T06:54:22.954Z,3.89
2018-11-26T06:55:27.718Z,3.92
2018-11-26T06:56:25.112Z,4.01
2018-11-26T06:57:27.100Z,4.06
2018-11-26T06:58:14.110Z,4.12
2018-11-26T06:59:27.074Z,4.07
2018-11-26T07:00:27.845Z,3.97
2018-11-26T07:01:26.064Z,3.97
2018-11-26T07:02:14.025Z,4.00
2018-11-26T07:03:26.026Z,4.00
2018-11-26T07:04:25.999Z,4.00
2018-11-26T07:05:27.470Z,4.03
2018-11-26T07:06:26.001Z,4.07
2018-11-26T07:07:24.033Z,3.98
2018-11-26T07:08:25.949Z,3.96
2018-11-26T07:09:13.944Z,3.92
2018-11-26T07:10:23.264Z,3.90
2018-11-26T07:11:25.731Z,3.96
2018-11-26T07:12:22.260Z,4.04
2018-11-26T07:13:24.401Z,4.06
2018-11-26T07:14:23.539Z,4.12
2018-11-26T07:15:25.691Z,4.08
2018-11-26T07:16:13.858Z,4.08
2018-11-26T07:17:26.857Z,4.15
2018-11-26T07:18:26.850Z,4.10
2018-11-26T07:19:21.620Z,4.00
2018-11-26T07:20:26.455Z,4.01
2018-11-26T07:21:14.808Z,3.98
2018-11-26T07:22:29.596Z,3.90
2018-11-26T07:23:25.766Z,3.89
2018-11-26T07:24:14.774Z,3.96
2018-11-26T07:25:13.777Z,4.01
2018-11-26T07:26:26.813Z,3.97
2018-11-26T07:27:27.059Z,3.94
2018-11-26T07:28:23.796Z,3.98
2018-11-26T07:29:13.713Z,3.96
2018-11-26T07:30:22.049Z,3.98
2018-11-26T07:31:26.718Z,4.07
2018-11-26T07:33:24.970Z,4.06
2018-11-26T07:36:35.404Z,4.08
2018-11-26T07:37:35.418Z,4.01
2018-11-26T07:38:35.368Z,4.03
2018-11-26T07:39:35.343Z,4.06
2018-11-26T07:42:14.607Z,4.01
2018-11-26T07:43:14.574Z,4.08
2018-11-26T07:44:14.560Z,4.14
2018-11-26T07:45:14.549Z,4.07
2018-11-26T07:46:14.566Z,4.04
2018-11-26T07:47:25.744Z,4.07
2018-11-26T07:48:14.524Z,4.07
2018-11-26T07:49:26.007Z,4.22
2018-11-26T07:51:54.666Z,4.21
2018-11-26T07:52:54.654Z,4.28
2018-11-26T07:53:54.635Z,4.18
2018-11-26T07:54:54.626Z,4.10
2018-11-26T07:56:04.704Z,4.19
2018-11-26T07:56:54.599Z,4.24
2018-11-26T07:59:24.284Z,4.10
2018-11-26T08:01:44.264Z,4.14
2018-11-26T08:02:57.290Z,4.18
2018-11-26T08:03:56.256Z,4.21
2018-11-26T08:04:51.586Z,4.10
2018-11-26T08:05:44.207Z,4.06
2018-11-26T08:06:44.208Z,4.03
2018-11-26T08:07:55.510Z,4.07
2018-11-26T08:08:57.240Z,4.15
2018-11-26T08:09:53.718Z,4.21
2018-11-26T08:10:44.153Z,4.12
2018-11-26T08:11:44.171Z,4.24
2018-11-26T08:12:56.188Z,4.12
2018-11-26T08:13:51.497Z,4.07
2018-11-26T08:14:53.036Z,3.94
2018-11-26T08:15:57.113Z,3.98
2018-11-26T08:16:44.082Z,4.03
2018-11-26T08:17:44.086Z,4.10
2018-11-26T08:18:55.107Z,4.04
2018-11-26T08:19:56.105Z,4.07
2018-11-26T08:20:57.376Z,3.97
2018-11-26T08:21:57.038Z,4.12
2018-11-26T08:23:34.353Z,4.08
2018-11-26T08:24:34.327Z,4.07
2018-11-26T08:26:56.035Z,4.08
2018-11-26T08:29:15.963Z,4.03
2018-11-26T08:30:15.700Z,4.06
2018-11-26T08:33:15.176Z,4.00
2018-11-26T08:34:15.154Z,4.04
2018-11-26T08:35:15.134Z,4.00
2018-11-26T08:36:15.710Z,4.04
2018-11-26T08:37:15.113Z,3.97
2018-11-26T08:38:15.124Z,4.10
2018-11-26T08:40:35.840Z,4.15
2018-11-26T08:43:04.940Z,4.19
2018-11-26T08:44:09.307Z,4.19
2018-11-26T08:45:15.928Z,4.08
2018-11-26T08:48:15.338Z,4.24
2018-11-26T08:49:15.330Z,4.14
2018-11-26T08:50:15.309Z,4.15
2018-11-26T08:51:15.281Z,4.26
2018-11-26T08:52:15.270Z,4.24
2018-11-26T08:53:15.269Z,4.25
2018-11-26T08:55:53.856Z,4.15
2018-11-26T08:57:06.394Z,4.24
2018-11-26T08:58:05.878Z,4.24
2018-11-26T08:59:05.194Z,4.26
2018-11-26T08:59:53.802Z,4.26
2018-11-26T09:00:53.797Z,4.26
2018-11-26T09:02:05.787Z,4.26
2018-11-26T09:02:53.803Z,4.24
2018-11-26T09:03:53.758Z,4.19
2018-11-26T09:05:05.773Z,4.12
2018-11-26T09:06:03.276Z,4.19
2018-11-26T09:07:05.739Z,4.22
2018-11-26T09:08:06.064Z,4.29
2018-11-26T09:09:04.726Z,4.26
2018-11-26T09:10:07.281Z,4.28
2018-11-26T09:11:06.692Z,4.25
2018-11-26T09:11:53.668Z,4.28
2018-11-26T09:13:06.729Z,4.32
2018-11-26T09:14:06.678Z,4.39
2018-11-26T09:15:06.667Z,4.40
2018-11-26T09:16:04.744Z,4.34
2018-11-26T09:17:04.943Z,4.36
2018-11-26T09:18:06.867Z,4.33
2018-11-26T09:18:53.595Z,4.36
2018-11-26T09:20:02.278Z,4.34
2018-11-26T09:21:04.106Z,4.37
2018-11-26T09:22:01.267Z,4.36
2018-11-26T09:23:05.611Z,4.37
2018-11-26T09:23:53.983Z,4.37
2018-11-26T09:24:53.536Z,4.40
2018-11-26T09:26:02.989Z,4.39
2018-11-26T09:27:00.538Z,4.34
2018-11-26T09:27:53.495Z,4.42
2018-11-26T09:29:01.541Z,4.46
2018-11-26T09:30:00.498Z,4.55
2018-11-26T09:31:00.476Z,4.50
2018-11-26T09:32:00.478Z,4.43
2018-11-26T09:33:03.374Z,4.40
2018-11-26T09:34:06.248Z,4.39
2018-11-26T09:35:00.456Z,4.51
2018-11-26T09:36:00.453Z,4.47
2018-11-26T09:37:00.426Z,4.46
2018-11-26T09:37:53.376Z,4.51
2018-11-26T09:39:00.415Z,4.39
2018-11-26T09:40:00.430Z,4.33
2018-11-26T09:41:10.081Z,4.34
2018-11-26T09:42:00.364Z,4.26
2018-11-26T09:43:00.354Z,4.28
2018-11-26T09:44:00.562Z,4.26
2018-11-26T09:45:00.324Z,4.25
2018-11-26T09:46:00.307Z,4.19
2018-11-26T09:46:53.280Z,4.18
2018-11-26T09:47:53.276Z,4.06
2018-11-26T09:48:53.257Z,4.06
2018-11-26T09:50:00.293Z,3.98
2018-11-26T09:50:53.234Z,4.06
2018-11-26T09:51:53.252Z,4.21
2018-11-26T09:52:53.219Z,4.24
2018-11-26T09:53:53.209Z,4.22
2018-11-26T09:54:53.196Z,4.33
2018-11-26T09:56:00.208Z,4.34
2018-11-26T09:56:53.215Z,4.39
2018-11-26T09:57:53.170Z,4.40
2018-11-26T09:58:53.159Z,4.46
2018-11-26T09:59:53.153Z,4.36
2018-11-26T10:00:53.127Z,4.36
2018-11-26T10:01:53.114Z,4.37
2018-11-26T10:02:53.104Z,4.47
2018-11-26T10:03:53.088Z,4.42
2018-11-26T10:04:53.132Z,4.42
2018-11-26T10:05:53.064Z,4.50
2018-11-26T10:07:00.086Z,4.50
2018-11-26T10:07:53.043Z,4.47
2018-11-26T10:08:53.041Z,4.44
2018-11-26T10:09:53.038Z,4.51
2018-11-26T10:10:53.009Z,4.57
2018-11-26T10:11:53.001Z,4.54
2018-11-26T10:12:53.149Z,4.61
2018-11-26T10:13:52.984Z,4.64
2018-11-26T10:14:52.978Z,4.61
2018-11-26T10:15:52.958Z,4.67
2018-11-26T10:16:52.941Z,4.57
2018-11-26T10:17:52.930Z,4.58
2018-11-26T10:18:52.920Z,4.58
2018-11-26T10:19:52.942Z,4.58
2018-11-26T10:20:52.902Z,4.58
2018-11-26T10:21:52.895Z,4.62
2018-11-26T10:22:52.879Z,4.65
2018-11-26T10:23:52.866Z,4.65
2018-11-26T10:24:52.856Z,4.59
2018-11-26T10:25:52.852Z,4.69
2018-11-26T10:26:52.832Z,4.67
2018-11-26T10:27:59.852Z,4.67
2018-11-26T10:28:52.813Z,4.67
2018-11-26T10:29:52.801Z,4.67
2018-11-26T10:30:52.799Z,4.67
2018-11-26T10:31:52.784Z,4.62
2018-11-26T10:32:52.769Z,4.55
2018-11-26T10:33:52.752Z,4.57
2018-11-26T10:34:52.741Z,4.55
2018-11-26T10:35:52.744Z,4.46
2018-11-26T10:36:52.722Z,4.44
2018-11-26T10:37:53.242Z,4.37
2018-11-26T10:38:59.718Z,4.51
2018-11-26T10:39:52.688Z,4.37
2018-11-26T10:40:52.688Z,4.57
2018-11-26T10:41:52.664Z,4.37
2018-11-26T10:42:52.658Z,4.55
2018-11-26T10:43:52.650Z,4.51
2018-11-26T10:44:52.631Z,4.54
2018-11-26T10:45:52.629Z,4.47
2018-11-26T10:46:52.611Z,4.46
2018-11-26T10:47:52.601Z,4.50
2018-11-26T10:48:59.616Z,4.59
2018-11-26T10:49:52.586Z,4.58
2018-11-26T10:50:52.577Z,4.54
2018-11-26T10:51:52.552Z,4.47
2018-11-26T10:52:52.540Z,4.43
2018-11-26T10:53:52.531Z,4.47
2018-11-26T10:54:52.529Z,4.46
2018-11-26T10:55:52.525Z,4.57
2018-11-26T10:56:52.496Z,4.52
2018-11-26T10:57:52.541Z,4.52
2018-11-26T10:58:52.473Z,4.51
2018-11-26T10:59:52.464Z,4.42
2018-11-26T11:00:52.471Z,4.37
2018-11-26T11:01:52.440Z,4.61
2018-11-26T11:02:52.430Z,4.40
2018-11-26T11:03:52.420Z,4.44
2018-11-26T11:04:59.727Z,4.52
2018-11-26T11:05:52.412Z,4.51
2018-11-26T11:06:55.815Z,4.47
2018-11-26T11:07:59.401Z,4.47
2018-11-26T11:08:52.379Z,4.47
2018-11-26T11:09:52.354Z,4.58
2018-11-26T11:10:52.354Z,4.54
2018-11-26T11:11:52.329Z,4.52
2018-11-26T11:12:52.318Z,4.58
2018-11-26T11:13:59.339Z,4.54
2018-11-26T11:14:52.298Z,4.58
2018-11-26T11:15:52.300Z,4.57
2018-11-26T11:16:52.277Z,4.61
2018-11-26T11:17:59.283Z,4.58
2018-11-26T11:18:52.262Z,4.57
2018-11-26T11:19:52.241Z,4.51
2018-11-26T11:20:52.263Z,4.50
2018-11-26T11:21:52.232Z,4.46
2018-11-26T11:22:52.215Z,4.50
2018-11-26T11:23:52.218Z,4.39
2018-11-26T11:24:52.185Z,4.46
2018-11-26T11:25:52.175Z,4.47
2018-11-26T11:26:52.172Z,4.47
2018-11-26T11:27:52.150Z,4.47
2018-11-26T11:30:40.691Z,4.43
2018-11-26T11:34:03.588Z,4.52
2018-11-26T11:37:47.456Z,4.50
2018-11-26T11:38:47.435Z,4.54
2018-11-26T11:39:47.419Z,4.51
2018-11-26T11:40:47.413Z,4.47
2018-11-26T11:41:47.418Z,4.51
2018-11-26T11:42:47.383Z,4.57
2018-11-26T11:43:47.373Z,4.57
2018-11-26T11:44:47.371Z,4.58
2018-11-26T11:45:47.357Z,4.59
2018-11-26T11:46:47.375Z,4.64
2018-11-26T11:47:47.328Z,4.62
2018-11-26T11:48:47.319Z,4.67
2018-11-26T11:49:47.309Z,4.62
2018-11-26T11:50:47.368Z,4.67
2018-11-26T11:51:47.287Z,4.65
2018-11-26T11:52:47.290Z,4.70
2018-11-26T11:53:47.262Z,4.77
2018-11-26T11:54:47.254Z,4.72
2018-11-26T11:55:47.240Z,4.69
2018-11-26T11:56:47.354Z,4.76
2018-11-26T11:57:47.243Z,4.70
2018-11-26T11:58:47.212Z,4.76
2018-11-26T11:59:47.198Z,4.70
2018-11-26T12:00:47.189Z,4.77
2018-11-26T12:01:47.179Z,4.72
2018-11-26T12:02:47.181Z,4.75
2018-11-26T12:03:47.154Z,4.65
2018-11-26T12:04:47.143Z,4.64
2018-11-26T12:05:47.129Z,4.65
2018-11-26T12:06:47.158Z,4.69
2018-11-26T12:07:47.127Z,4.70
2018-11-26T12:08:47.099Z,4.70
2018-11-26T12:09:47.083Z,4.64
2018-11-26T12:10:47.077Z,4.67
2018-11-26T12:11:48.114Z,4.76
2018-11-26T12:12:47.066Z,4.80
2018-11-26T12:13:47.040Z,4.77
2018-11-26T12:14:47.036Z,4.80
2018-11-26T12:15:47.015Z,4.77
2018-11-26T12:16:47.006Z,4.88
2018-11-26T12:17:47.021Z,4.88
2018-11-26T12:18:46.987Z,4.91
2018-11-26T12:19:46.980Z,4.91
2018-11-26T12:20:46.968Z,4.89
2018-11-26T12:21:46.952Z,5.01
2018-11-26T12:22:46.938Z,4.99
2018-11-26T12:23:46.938Z,4.96
2018-11-26T12:24:46.916Z,4.94
2018-11-26T12:25:47.658Z,4.92
2018-11-26T12:26:46.896Z,4.94
2018-11-26T12:27:46.882Z,4.96
2018-11-26T12:28:46.882Z,4.99
2018-11-26T12:29:46.862Z,4.92
2018-11-26T12:30:46.850Z,4.86
2018-11-26T12:31:47.658Z,4.79
2018-11-26T12:32:46.826Z,4.76
2018-11-26T12:33:46.827Z,4.88
2018-11-26T12:34:46.806Z,4.75
2018-11-26T12:35:46.796Z,4.80
2018-11-26T12:36:46.783Z,4.86
2018-11-26T12:37:46.774Z,4.76
2018-11-26T12:38:46.771Z,4.86
2018-11-26T12:39:46.748Z,4.83
2018-11-26T12:40:46.737Z,4.76
2018-11-26T12:41:46.727Z,4.83
2018-11-26T12:42:46.718Z,4.83
2018-11-26T12:43:47.147Z,4.83
2018-11-26T12:44:46.694Z,4.88
2018-11-26T12:45:46.686Z,4.88
2018-11-26T12:46:46.672Z,4.91
2018-11-26T12:47:46.669Z,4.84
2018-11-26T12:48:46.663Z,4.84
2018-11-26T12:49:46.637Z,4.80
2018-11-26T12:50:46.626Z,4.72
2018-11-26T12:51:46.612Z,4.72
2018-11-26T12:52:46.605Z,4.61
2018-11-26T12:53:46.618Z,4.62
2018-11-26T12:54:46.580Z,4.62
2018-11-26T12:55:46.570Z,4.65
2018-11-26T12:56:46.559Z,4.62
2018-11-26T12:57:46.550Z,4.65
2018-11-26T12:58:46.677Z,4.67
2018-11-26T12:59:46.534Z,4.69
2018-11-26T13:00:46.519Z,4.65
2018-11-26T13:01:46.505Z,4.54
2018-11-26T13:02:46.493Z,4.50
2018-11-26T13:03:46.513Z,4.47
2018-11-26T13:04:46.473Z,4.46
2018-11-26T13:05:46.462Z,4.44
2018-11-26T13:06:46.452Z,4.40
2018-11-26T13:07:46.438Z,4.46
2018-11-26T13:08:46.430Z,4.42
2018-11-26T13:09:46.425Z,4.43
2018-11-26T13:10:46.407Z,4.42
2018-11-26T13:11:46.397Z,4.44
2018-11-26T13:12:46.383Z,4.59
2018-11-26T13:13:46.369Z,4.51
2018-11-26T13:14:46.375Z,4.50
2018-11-26T13:15:46.354Z,4.43
2018-11-26T13:16:46.340Z,4.44
2018-11-26T13:17:46.374Z,4.54
2018-11-26T13:18:46.321Z,4.44
2018-11-26T13:19:46.323Z,4.39
2018-11-26T13:20:46.292Z,4.44
2018-11-26T13:21:46.292Z,4.47
2018-11-26T13:22:46.270Z,4.47
2018-11-26T13:23:46.261Z,4.46
2018-11-26T13:24:46.260Z,4.51
2018-11-26T13:25:46.240Z,4.51
2018-11-26T13:26:46.233Z,4.58
2018-11-26T13:27:46.220Z,4.44
2018-11-26T13:28:46.206Z,4.57
2018-11-26T13:29:46.220Z,4.47
2018-11-26T13:30:46.181Z,4.54
2018-11-26T13:31:46.169Z,4.46
2018-11-26T13:32:46.169Z,4.43
2018-11-26T13:33:46.666Z,4.47
2018-11-26T13:34:46.137Z,4.44
2018-11-26T13:35:46.137Z,4.33
2018-11-26T13:36:46.113Z,4.39
2018-11-26T13:37:46.367Z,4.33
2018-11-26T13:38:46.103Z,4.44
2018-11-26T13:39:46.082Z,4.40
2018-11-26T13:40:46.081Z,4.51
2018-11-26T13:41:46.065Z,4.37
2018-11-26T13:42:46.050Z,4.39
2018-11-26T13:43:46.048Z,4.44
2018-11-26T13:44:46.040Z,4.46
2018-11-26T13:45:46.055Z,4.52
2018-11-26T13:46:46.010Z,4.55
2018-11-26T13:47:45.998Z,4.54
2018-11-26T13:48:45.984Z,4.59
2018-11-26T13:49:46.668Z,4.44
2018-11-26T13:50:45.987Z,4.52
2018-11-26T13:51:45.949Z,4.57
2018-11-26T13:52:45.968Z,4.46
2018-11-26T13:53:45.933Z,4.50
2018-11-26T13:54:45.925Z,4.50
2018-11-26T13:55:45.925Z,4.42
2018-11-26T13:56:45.903Z,4.44
2018-11-26T13:57:45.883Z,4.26
2018-11-26T13:58:45.888Z,4.43
2018-11-26T13:59:45.870Z,4.34
2018-11-26T14:00:45.863Z,4.37
2018-11-26T14:01:45.863Z,4.40
2018-11-26T14:02:45.838Z,4.40
2018-11-26T14:03:45.823Z,4.42
2018-11-26T14:04:45.806Z,4.55
2018-11-26T14:05:45.816Z,4.54
2018-11-26T14:06:45.795Z,4.39
2018-11-26T14:07:46.693Z,4.39
2018-11-26T14:08:45.769Z,4.46
2018-11-26T14:09:45.749Z,4.34
2018-11-26T14:10:45.755Z,4.47
2018-11-26T14:11:45.730Z,4.44
2018-11-26T14:12:45.727Z,4.39
2018-11-26T14:13:45.710Z,4.36
2018-11-26T14:14:45.695Z,4.39
2018-11-26T14:15:45.763Z,4.32
2018-11-26T14:16:45.684Z,4.39
2018-11-26T14:17:45.670Z,4.34
2018-11-26T14:18:45.685Z,4.33
2018-11-26T14:19:45.646Z,4.34
2018-11-26T14:20:45.641Z,4.34
2018-11-26T14:21:45.618Z,4.34
2018-11-26T14:22:45.612Z,4.43
2018-11-26T14:23:45.608Z,4.33
2018-11-26T14:24:45.586Z,4.34
2018-11-26T14:25:45.587Z,4.40
2018-11-26T14:26:45.564Z,4.37
2018-11-26T14:27:45.552Z,4.29
2018-11-26T14:28:45.546Z,4.37
2018-11-26T14:29:45.542Z,4.36
2018-11-26T14:30:45.556Z,4.32
2018-11-26T14:31:45.510Z,4.36
2018-11-26T14:32:45.499Z,4.36
2018-11-26T14:33:45.485Z,4.29
2018-11-26T14:34:45.479Z,4.25
2018-11-26T14:35:45.481Z,4.25
2018-11-26T14:36:45.450Z,4.26
2018-11-26T14:37:45.443Z,4.25
2018-11-26T14:38:45.429Z,4.24
2018-11-26T14:39:45.426Z,4.26
2018-11-26T14:40:45.418Z,4.25
2018-11-26T14:41:45.393Z,4.26
2018-11-26T14:42:45.380Z,4.14
2018-11-26T14:43:45.368Z,4.26
2018-11-26T14:44:45.357Z,4.18
2018-11-26T14:45:45.361Z,4.24
2018-11-26T14:46:45.338Z,4.25
2018-11-26T14:47:45.325Z,4.24
2018-11-26T14:48:45.315Z,4.25
2018-11-26T14:49:45.303Z,4.26
2018-11-26T14:50:45.305Z,4.25
2018-11-26T14:51:45.280Z,4.25